Time;durP1;ratioP1;P1;durP2;ratioP2;P2;SDS_P1;SDS_P2;PMS_P1;PMS_P2;Temp;Humidity;BMP_temperature;BMP_pressure;BME280_temperature;BME280_humidity;BME280_pressure;Samples;Min_cycle;Max_cycle;Signal;HPM_P1;HPM_P2
2022/07/15 00:01:38;;;;;;;8.45;2.88;;;;;;;13.89;100.00;102467.72;7372640;19;20011;-77
2022/07/15 00:04:09;;;;;;;8.38;2.80;;;;;;;13.85;100.00;102466.72;7372718;19;20037;-78
2022/07/15 00:06:40;;;;;;;11.13;2.58;;;;;;;13.82;100.00;102468.41;7371441;19;20682;-78
2022/07/15 00:09:10;;;;;;;6.45;2.70;;;;;;;13.80;100.00;102468.38;7370574;19;20519;-77
2022/07/15 00:11:40;;;;;;;5.15;2.33;;;;;;;13.77;100.00;102470.91;7371979;19;20002;-76
2022/07/15 00:14:12;;;;;;;8.15;3.00;;;;;;;13.73;100.00;102471.69;7369540;19;20063;-77
2022/07/15 00:16:42;;;;;;;12.80;3.00;;;;;;;13.76;100.00;102461.22;7368200;19;20043;-76
2022/07/15 00:19:12;;;;;;;7.28;2.28;;;;;;;13.76;100.00;102458.59;7372123;19;20310;-77
2022/07/15 00:21:42;;;;;;;9.93;2.75;;;;;;;13.74;100.00;102457.66;7370777;19;20010;-77
2022/07/15 00:24:12;;;;;;;9.05;3.15;;;;;;;13.70;100.00;102466.34;7370880;19;20039;-76
2022/07/15 00:26:41;;;;;;;7.30;2.58;;;;;;;13.67;100.00;102458.34;7369252;19;20507;-77
2022/07/15 00:29:14;;;;;;;6.88;2.55;;;;;;;13.61;100.00;102458.19;7370342;19;20011;-77
2022/07/15 00:31:44;;;;;;;7.27;2.60;;;;;;;13.62;100.00;102450.31;7374342;19;20490;-76
2022/07/15 00:34:16;;;;;;;11.00;3.30;;;;;;;13.61;100.00;102456.44;7370620;19;20014;-77
2022/07/15 00:36:46;;;;;;;5.57;2.47;;;;;;;13.58;100.00;102452.81;7363929;19;20281;-76
2022/07/15 00:39:16;;;;;;;8.68;2.60;;;;;;;13.55;100.00;102465.94;7372881;19;20502;-77
2022/07/15 00:41:46;;;;;;;4.03;2.55;;;;;;;13.54;100.00;102456.22;7371746;19;20427;-76
2022/07/15 00:44:18;;;;;;;8.13;2.90;;;;;;;13.50;100.00;102457.94;7372121;19;20094;-76
2022/07/15 00:46:51;;;;;;;11.65;3.22;;;;;;;13.44;100.00;102454.22;7370230;19;20007;-77
2022/07/15 00:49:21;;;;;;;5.88;2.75;;;;;;;13.41;100.00;102458.56;7371233;19;20010;-77
2022/07/15 00:51:53;;;;;;;6.85;2.50;;;;;;;13.35;100.00;102455.78;7371709;19;20022;-77
2022/07/15 00:54:27;;;;;;;7.18;2.58;;;;;;;13.37;100.00;102464.59;7364549;19;20031;-76
2022/07/15 00:56:59;;;;;;;7.93;2.55;;;;;;;13.32;100.00;102453.03;7375994;19;20052;-76
2022/07/15 00:59:36;;;;;;;7.78;2.63;;;;;;;13.30;100.00;102452.13;7371836;19;20541;-77
2022/07/15 01:02:08;;;;;;;10.20;2.88;;;;;;;13.30;100.00;102462.66;7376139;19;20020;-77
2022/07/15 01:04:40;;;;;;;9.13;2.63;;;;;;;13.24;100.00;102464.22;7373664;19;20478;-77
2022/07/15 01:07:10;;;;;;;5.90;2.75;;;;;;;13.23;100.00;102458.06;7373303;19;20011;-76
2022/07/15 01:09:40;;;;;;;8.02;2.80;;;;;;;13.20;100.00;102460.59;7372912;19;20018;-77
2022/07/15 01:12:11;;;;;;;8.88;2.63;;;;;;;13.21;100.00;102461.50;7373993;19;20028;-77
2022/07/15 01:14:43;;;;;;;7.90;4.18;;;;;;;13.19;100.00;102461.47;7372468;19;20022;-76
2022/07/15 01:17:13;;;;;;;7.35;2.40;;;;;;;13.20;100.00;102464.97;7368311;19;20053;-77
2022/07/15 01:19:43;;;;;;;8.75;3.00;;;;;;;13.17;100.00;102468.44;7369155;19;20707;-76
2022/07/15 01:22:16;;;;;;;7.53;2.70;;;;;;;13.14;100.00;102464.78;7370112;19;20026;-76
2022/07/15 01:24:46;;;;;;;6.32;2.67;;;;;;;13.13;100.00;102463.88;7370276;19;20015;-77
2022/07/15 01:27:16;;;;;;;7.63;2.83;;;;;;;13.13;100.00;102465.63;7366245;19;20357;-77
2022/07/15 01:29:46;;;;;;;9.55;2.58;;;;;;;13.09;100.00;102462.00;7366009;19;20138;-77
2022/07/15 01:32:16;;;;;;;8.32;2.63;;;;;;;13.05;100.00;102465.41;7369282;19;20017;-76
2022/07/15 01:34:48;;;;;;;7.88;2.75;;;;;;;13.02;100.00;102466.22;7372347;19;20014;-77
2022/07/15 01:37:20;;;;;;;9.48;2.60;;;;;;;13.01;100.00;102471.44;7364941;19;20014;-77
2022/07/15 01:39:50;;;;;;;8.50;2.43;;;;;;;12.98;100.00;102466.97;7369880;19;20014;-76
2022/07/15 01:42:20;;;;;;;7.50;2.40;;;;;;;12.97;100.00;102465.19;7369663;19;20240;-78
2022/07/15 01:44:50;;;;;;;7.55;2.28;;;;;;;12.96;100.00;102463.41;7370363;19;20559;-77
2022/07/15 01:47:20;;;;;;;7.03;2.38;;;;;;;12.94;100.00;102469.47;7370643;19;20007;-78
2022/07/15 01:49:50;;;;;;;7.35;2.33;;;;;;;12.90;100.00;102463.22;7372469;19;20007;-76
2022/07/15 01:52:24;;;;;;;9.43;2.80;;;;;;;12.92;100.00;102460.63;7371515;19;20002;-76
2022/07/15 01:54:54;;;;;;;6.35;2.60;;;;;;;12.89;100.00;102463.16;7371233;19;20011;-76
2022/07/15 01:57:24;;;;;;;11.55;3.13;;;;;;;12.86;100.00;102458.69;7372112;19;20451;-76
2022/07/15 01:59:54;;;;;;;12.85;2.90;;;;;;;12.84;100.00;102455.13;7370886;19;20030;-76
2022/07/15 02:02:24;;;;;;;5.70;2.13;;;;;;;12.81;100.00;102459.41;7367638;19;20011;-76
2022/07/15 02:04:55;;;;;;;9.20;2.83;;;;;;;12.78;100.00;102461.09;7369416;19;20019;-76
2022/07/15 02:07:28;;;;;;;5.93;2.35;;;;;;;12.77;100.00;102469.84;7369557;19;20085;-76
2022/07/15 02:09:58;;;;;;;6.20;2.90;;;;;;;12.74;100.00;102471.50;7374496;19;20018;-77
2022/07/15 02:12:28;;;;;;;6.82;2.10;;;;;;;12.72;100.00;102471.44;7376535;19;20010;-76
2022/07/15 02:14:58;;;;;;;7.53;2.40;;;;;;;12.70;100.00;102462.63;7375491;19;20049;-76
2022/07/15 02:17:28;;;;;;;10.48;2.92;;;;;;;12.67;100.00;102462.53;7377314;19;20006;-77
2022/07/15 02:19:58;;;;;;;5.50;2.30;;;;;;;12.69;100.00;102468.72;7375378;19;20014;-77
2022/07/15 02:22:31;;;;;;;16.00;2.70;;;;;;;12.66;100.00;102460.75;7374082;19;20680;-78
2022/07/15 02:25:01;;;;;;;5.70;2.00;;;;;;;12.67;100.00;102465.16;7374963;19;20019;-78
2022/07/15 02:27:31;;;;;;;6.53;2.63;;;;;;;12.63;100.00;102460.63;7378890;19;20007;-77
2022/07/15 02:30:01;;;;;;;8.25;2.40;;;;;;;12.61;100.00;102459.69;7372678;19;20014;-77
2022/07/15 02:32:31;;;;;;;6.80;2.35;;;;;;;12.61;100.00;102467.59;7380850;19;20511;-77
2022/07/15 02:35:01;;;;;;;8.27;2.72;;;;;;;12.57;100.00;102463.09;7373483;19;20011;-77
2022/07/15 02:37:33;;;;;;;12.02;2.30;;;;;;;12.52;100.00;102458.53;7375557;19;20007;-77
2022/07/15 02:40:03;;;;;;;8.52;2.13;;;;;;;12.53;100.00;102462.94;7375839;19;20035;-78
2022/07/15 02:42:33;;;;;;;8.27;2.38;;;;;;;12.53;100.00;102458.56;7377807;19;20018;-77
2022/07/15 02:45:03;;;;;;;11.75;2.78;;;;;;;12.50;100.00;102466.38;7374280;19;20018;-77
2022/07/15 02:47:34;;;;;;;7.45;2.95;;;;;;;12.52;100.00;102464.69;7375849;19;20098;-77
2022/07/15 02:50:05;;;;;;;8.13;2.42;;;;;;;12.48;100.00;102464.56;7373011;19;20010;-77
2022/07/15 02:52:37;;;;;;;8.85;2.70;;;;;;;12.48;100.00;102472.47;7371248;19;20025;-77
2022/07/15 02:55:09;;;;;;;7.87;2.80;;;;;;;12.45;100.00;102478.53;7378794;19;20253;-77
2022/07/15 02:57:40;;;;;;;4.97;2.40;;;;;;;12.42;100.00;102481.97;7381390;19;20010;-76
2022/07/15 03:00:14;;;;;;;4.93;2.50;;;;;;;12.38;100.00;102479.19;7378695;19;20624;-77
2022/07/15 03:02:44;;;;;;;8.98;2.70;;;;;;;12.36;100.00;102472.97;7377738;19;20489;-79
2022/07/15 03:05:15;;;;;;;6.65;2.70;;;;;;;12.38;100.00;102476.53;7370047;19;20011;-77
2022/07/15 03:07:48;;;;;;;6.18;2.60;;;;;;;12.41;100.00;102477.53;7376571;19;20011;-77
2022/07/15 03:10:18;;;;;;;6.47;2.40;;;;;;;12.36;100.00;102475.59;7370096;19;20148;-78
2022/07/15 03:12:48;;;;;;;6.72;2.90;;;;;;;12.35;100.00;102485.22;7373151;19;20564;-77
2022/07/15 03:15:17;;;;;;;7.13;2.38;;;;;;;12.35;100.00;102482.59;7373495;19;20006;-76
2022/07/15 03:17:47;;;;;;;7.40;2.55;;;;;;;12.31;100.00;102492.97;7375671;19;20033;-77
2022/07/15 03:20:17;;;;;;;6.97;2.50;;;;;;;12.30;100.00;102488.56;7370419;19;20078;-77
2022/07/15 03:22:50;;;;;;;8.02;2.13;;;;;;;12.33;100.00;102492.19;7373548;19;20435;-77
2022/07/15 03:25:20;;;;;;;5.93;2.60;;;;;;;12.37;100.00;102494.06;7374305;19;20826;-77
2022/07/15 03:27:50;;;;;;;7.53;2.97;;;;;;;12.40;100.00;102503.81;7373826;19;20030;-77
2022/07/15 03:30:22;;;;;;;5.13;2.28;;;;;;;12.39;100.00;102507.28;7372617;19;20059;-77
2022/07/15 03:32:52;;;;;;;10.30;2.78;;;;;;;12.38;100.00;102505.50;7375335;19;20027;-78
2022/07/15 03:35:23;;;;;;;8.25;3.50;;;;;;;12.40;100.00;102504.69;7372461;19;20021;-77
2022/07/15 03:37:56;;;;;;;9.40;3.13;;;;;;;12.43;100.00;102501.25;7373939;19;20018;-76
2022/07/15 03:40:26;;;;;;;5.68;2.72;;;;;;;12.48;100.00;102502.28;7375531;19;20006;-77
2022/07/15 03:42:56;;;;;;;8.02;3.28;;;;;;;12.49;100.00;102504.06;7373126;19;20050;-77
2022/07/15 03:45:26;;;;;;;6.70;2.42;;;;;;;12.51;100.00;102507.63;7372728;19;20027;-77
2022/07/15 03:47:56;;;;;;;7.43;2.80;;;;;;;12.54;100.00;102507.72;7372751;19;20023;-76
2022/07/15 03:50:25;;;;;;;5.63;2.15;;;;;;;12.56;100.00;102510.41;7373089;19;20011;-77
2022/07/15 03:52:58;;;;;;;6.50;2.42;;;;;;;12.53;100.00;102502.41;7366855;19;20010;-76
2022/07/15 03:55:31;;;;;;;7.15;2.60;;;;;;;12.55;100.00;102520.03;7374807;19;20229;-77
2022/07/15 03:58:01;;;;;;;6.65;2.47;;;;;;;12.58;100.00;102521.88;7374879;19;20013;-76
2022/07/15 04:00:32;;;;;;;3.78;1.92;;;;;;;12.56;100.00;102519.19;7370707;19;20007;-77
2022/07/15 04:03:02;;;;;;;6.32;2.30;;;;;;;12.57;100.00;102512.19;7372879;19;20587;-77
2022/07/15 04:05:33;;;;;;;6.88;2.22;;;;;;;12.58;100.00;102520.16;7372532;19;20488;-77
2022/07/15 04:08:06;;;;;;;6.50;3.00;;;;;;;12.61;100.00;102522.88;7375853;19;20103;-77
2022/07/15 04:10:36;;;;;;;5.82;2.35;;;;;;;12.65;100.00;102522.13;7373335;19;20542;-77
2022/07/15 04:13:06;;;;;;;5.55;2.40;;;;;;;12.70;100.00;102525.78;7371304;19;20014;-77
2022/07/15 04:15:36;;;;;;;8.20;2.83;;;;;;;12.73;100.00;102531.16;7370276;19;20026;-76
2022/07/15 04:18:07;;;;;;;7.68;2.47;;;;;;;12.75;100.00;102529.47;7371163;19;20014;-75
2022/07/15 04:20:37;;;;;;;7.50;2.17;;;;;;;12.77;100.00;102533.03;7373654;19;20011;-78
2022/07/15 04:23:10;;;;;;;7.18;2.50;;;;;;;12.78;100.00;102524.28;7373746;19;20475;-78
2022/07/15 04:25:41;;;;;;;8.25;2.72;;;;;;;12.78;100.00;102533.94;7373821;19;20010;-76
2022/07/15 04:28:11;;;;;;;7.82;2.45;;;;;;;12.80;100.00;102531.34;7375659;19;20344;-78
2022/07/15 04:30:41;;;;;;;9.27;2.55;;;;;;;12.80;100.00;102532.25;7374240;19;20035;-77
2022/07/15 04:33:11;;;;;;;8.55;2.60;;;;;;;12.77;100.00;102530.41;7376554;19;20044;-78
2022/07/15 04:35:41;;;;;;;8.10;2.40;;;;;;;12.81;100.00;102533.13;7378412;19;20472;-76
2022/07/15 04:38:14;;;;;;;7.47;2.72;;;;;;;12.82;100.00;102534.91;7371287;19;20014;-76
2022/07/15 04:40:45;;;;;;;4.88;2.40;;;;;;;12.82;100.00;102527.03;7373756;19;20014;-77
2022/07/15 04:43:15;;;;;;;11.80;2.85;;;;;;;12.87;100.00;102531.59;7372492;19;20014;-78
2022/07/15 04:45:45;;;;;;;7.43;2.03;;;;;;;12.93;100.00;102538.78;7371415;19;20471;-76
2022/07/15 04:50:58;;;;;;;6.55;3.50;;;;;;;13.12;100.00;102530.59;7372867;19;20014;-77
2022/07/15 04:53:34;;;;;;;7.80;2.53;;;;;;;13.28;100.00;102538.13;7368201;19;20011;-79
2022/07/15 04:56:05;;;;;;;6.20;2.67;;;;;;;13.44;100.00;102538.56;7373901;19;20448;-80
2022/07/15 04:58:35;;;;;;;4.85;2.30;;;;;;;13.62;100.00;102541.69;7376136;19;20077;-79
2022/07/15 05:01:05;;;;;;;5.40;2.30;;;;;;;13.81;100.00;102537.81;7374935;19;20019;-76
2022/07/15 05:03:35;;;;;;;7.95;2.70;;;;;;;13.99;100.00;102531.28;7372742;19;20039;-77
2022/07/15 05:06:06;;;;;;;6.57;2.20;;;;;;;14.20;100.00;102527.41;7373517;19;20017;-78
2022/07/15 05:08:38;;;;;;;6.00;1.98;;;;;;;14.42;100.00;102521.84;7373084;19;21140;-77
2022/07/15 05:11:08;;;;;;;7.88;2.33;;;;;;;14.65;100.00;102519.72;7369182;19;20471;-80
2022/07/15 05:13:40;;;;;;;3.53;2.00;;;;;;;14.87;100.00;102522.00;7371145;19;20085;-79
2022/07/15 05:16:10;;;;;;;5.72;2.13;;;;;;;15.07;100.00;102524.19;7374604;19;20006;-79
2022/07/15 05:18:41;;;;;;;5.97;1.90;;;;;;;15.24;100.00;102517.50;7368157;19;20049;-80
2022/07/15 05:21:11;;;;;;;6.25;2.08;;;;;;;15.51;100.00;102517.16;7373712;19;21324;-79
2022/07/15 05:23:46;;;;;;;5.82;1.90;;;;;;;15.69;100.00;102509.59;7370082;19;20013;-80
2022/07/15 05:26:36;;;;;;;5.97;2.27;;;;;;;16.00;100.00;102508.41;7373448;19;20033;-80
2022/07/15 05:29:13;;;;;;;7.80;1.90;;;;;;;16.07;97.49;102512.03;7371663;19;20271;-79
2022/07/15 05:31:43;;;;;;;6.10;1.88;;;;;;;16.23;95.83;102495.56;7372635;19;20098;-78
2022/07/15 05:34:13;;;;;;;5.43;2.00;;;;;;;16.56;98.38;102511.09;7369945;19;20014;-79
2022/07/15 05:36:44;;;;;;;2.45;1.50;;;;;;;16.87;98.02;102505.38;7374178;19;20044;-79
2022/07/15 05:39:16;;;;;;;6.68;1.92;;;;;;;17.06;94.18;102502.97;7374553;19;20017;-80
2022/07/15 05:41:47;;;;;;;6.82;2.13;;;;;;;17.11;91.66;102503.91;7371324;19;20106;-80
2022/07/15 05:44:18;;;;;;;3.60;1.70;;;;;;;17.26;86.85;102504.09;7378834;19;20023;-79
2022/07/15 05:46:48;;;;;;;8.20;2.25;;;;;;;17.31;87.93;102503.28;7379258;19;20021;-77
2022/07/15 05:49:18;;;;;;;5.40;1.90;;;;;;;17.22;86.61;102508.47;7379565;19;20022;-79
2022/07/15 05:51:48;;;;;;;5.35;2.05;;;;;;;17.36;85.32;102510.41;7376543;19;20010;-78
2022/07/15 05:54:20;;;;;;;4.35;1.40;;;;;;;17.54;85.90;102502.66;7375904;19;20015;-78
2022/07/15 05:56:50;;;;;;;8.02;1.90;;;;;;;17.61;84.29;102510.69;7377311;19;20029;-78
2022/07/15 05:59:20;;;;;;;9.50;2.83;;;;;;;17.80;82.53;102497.63;7380790;19;20010;-78
2022/07/15 06:01:51;;;;;;;4.45;1.80;;;;;;;18.18;82.38;102497.97;7379825;19;20041;-79
2022/07/15 06:04:21;;;;;;;9.13;2.22;;;;;;;18.18;77.83;102503.28;7378489;19;20021;-77
2022/07/15 06:06:51;;;;;;;7.65;1.73;;;;;;;18.31;78.94;102499.84;7365507;19;20007;-78
2022/07/15 06:09:24;;;;;;;3.90;1.45;;;;;;;18.39;77.18;102511.44;7374818;19;20358;-77
2022/07/15 06:11:54;;;;;;;5.05;1.48;;;;;;;18.35;77.83;102500.75;7371340;19;20023;-78
2022/07/15 06:14:24;;;;;;;5.82;1.80;;;;;;;18.87;78.31;102508.19;7374225;19;20006;-78
2022/07/15 06:16:55;;;;;;;4.95;1.42;;;;;;;19.11;77.66;102501.22;7373555;19;20083;-80
2022/07/15 06:19:25;;;;;;;4.32;1.30;;;;;;;19.42;78.01;102500.47;7373213;19;20043;-79
2022/07/15 06:21:55;;;;;;;5.22;1.30;;;;;;;19.68;73.55;102497.91;7375817;19;20006;-78
2022/07/15 06:24:30;;;;;;;5.18;1.60;;;;;;;19.87;74.00;102497.00;7375234;19;20470;-79
2022/07/15 06:27:09;;;;;;;9.55;1.98;;;;;;;19.42;72.15;102496.91;7375655;19;20106;-79
2022/07/15 06:29:43;;;;;;;6.63;1.58;;;;;;;19.65;70.25;102505.00;7370161;19;20014;-79
2022/07/15 06:32:20;;;;;;;3.95;1.15;;;;;;;18.83;69.04;102494.88;7368163;19;20054;-78
2022/07/15 06:34:55;;;;;;;5.68;1.60;;;;;;;19.17;68.50;102496.81;7372111;19;20054;-79
2022/07/15 06:37:31;;;;;;;5.97;1.48;;;;;;;19.09;70.00;102489.69;7371823;19;20082;-78
2022/07/15 06:40:05;;;;;;;2.60;1.20;;;;;;;18.89;69.87;102506.44;7372090;19;20007;-77
2022/07/15 06:42:38;;;;;;;4.97;1.13;;;;;;;19.03;69.44;102510.94;7372029;19;20042;-79
2022/07/15 06:45:12;;;;;;;6.32;1.40;;;;;;;18.91;69.93;102501.13;7379506;19;20396;-77
2022/07/15 06:47:43;;;;;;;5.90;1.25;;;;;;;18.31;72.59;102513.13;7377076;19;20006;-78
2022/07/15 06:50:14;;;;;;;2.72;1.33;;;;;;;19.01;72.40;102510.03;7375993;19;20006;-76
2022/07/15 06:52:47;;;;;;;2.63;1.30;;;;;;;19.01;71.33;102505.63;7372643;19;19998;-78
2022/07/15 06:55:20;;;;;;;5.10;1.63;;;;;;;19.25;71.76;102511.03;7374667;19;20021;-75
2022/07/15 06:57:50;;;;;;;5.30;1.70;;;;;;;19.63;70.79;102514.75;7374833;19;20456;-78
2022/07/15 07:00:20;;;;;;;5.25;1.33;;;;;;;19.35;69.91;102521.72;7378816;19;20369;-78
2022/07/15 07:02:50;;;;;;;8.80;1.38;;;;;;;19.12;70.79;102514.53;7380040;19;20022;-78
2022/07/15 07:05:20;;;;;;;1.95;1.20;;;;;;;18.78;69.80;102512.56;7378919;19;20014;-78
2022/07/15 07:07:51;;;;;;;8.35;1.63;;;;;;;19.01;71.08;102516.25;7383115;19;20480;-78
2022/07/15 07:10:23;;;;;;;4.20;1.40;;;;;;;19.64;70.46;102513.88;7383980;19;20027;-80
2022/07/15 07:12:54;;;;;;;4.93;1.17;;;;;;;19.97;67.13;102521.88;7383632;19;20078;-81
2022/07/15 07:15:24;;;;;;;3.70;1.58;;;;;;;19.81;65.56;102523.63;7379236;19;20558;-77
2022/07/15 07:17:55;;;;;;;5.00;1.45;;;;;;;19.32;68.33;102527.91;7380031;19;20374;-78
2022/07/15 07:20:25;;;;;;;4.07;1.30;;;;;;;19.51;67.44;102523.56;7378551;19;20070;-78
2022/07/15 07:22:57;;;;;;;9.85;4.40;;;;;;;19.97;67.51;102523.66;7379472;19;20010;-78
2022/07/15 07:25:29;;;;;;;8.45;2.88;;;;;;;20.95;64.52;102514.69;7378876;19;20022;-78
2022/07/15 07:28:03;;;;;;;5.97;1.88;;;;;;;21.61;62.49;102514.41;7377788;19;20063;-77
2022/07/15 07:30:33;;;;;;;6.65;1.73;;;;;;;21.34;59.95;102512.78;7381033;19;20045;-81
2022/07/15 07:33:03;;;;;;;6.47;1.58;;;;;;;21.47;59.43;102511.81;7378472;19;20018;-81
2022/07/15 07:35:33;;;;;;;4.72;1.50;;;;;;;22.08;59.39;102512.31;7379863;19;20015;-80
2022/07/15 07:38:03;;;;;;;4.45;1.40;;;;;;;21.45;57.12;102513.63;7378919;19;20014;-81
2022/07/15 07:40:36;;;;;;;2.72;1.17;;;;;;;21.23;59.07;102515.50;7380523;19;20010;-80
2022/07/15 07:43:06;;;;;;;4.27;1.17;;;;;;;22.16;58.60;102515.81;7378462;19;20022;-80
2022/07/15 07:45:36;;;;;;;4.22;1.33;;;;;;;22.54;55.93;102516.38;7378221;19;20321;-81
2022/07/15 07:48:07;;;;;;;6.55;1.33;;;;;;;22.54;56.36;102516.38;7380810;19;20010;-80
2022/07/15 07:50:37;;;;;;;8.93;2.63;;;;;;;22.23;57.04;102519.31;7379446;19;20019;-75
2022/07/15 07:53:08;;;;;;;4.70;1.63;;;;;;;22.26;54.72;102516.63;7372705;19;20775;-77
2022/07/15 07:55:41;;;;;;;3.58;1.30;;;;;;;21.66;56.86;102516.16;7379948;19;20015;-78
2022/07/15 07:58:15;;;;;;;7.50;1.50;;;;;;;22.55;55.86;102513.69;7377322;19;20571;-77
2022/07/15 08:00:47;;;;;;;5.13;1.60;;;;;;;22.69;54.82;102508.19;7378990;19;20453;-81
2022/07/15 08:03:18;;;;;;;6.05;1.80;;;;;;;23.28;53.56;102507.50;7378511;19;20044;-78
2022/07/15 08:05:49;;;;;;;4.35;1.30;;;;;;;23.19;52.03;102504.94;7375681;19;20053;-77
2022/07/15 08:08:22;;;;;;;5.55;1.50;;;;;;;22.75;51.29;102508.13;7379415;19;20437;-76
2022/07/15 08:10:57;;;;;;;4.53;1.45;;;;;;;22.93;52.66;102507.91;7373401;19;20348;-78
2022/07/15 08:13:28;;;;;;;6.43;1.80;;;;;;;23.44;50.62;102505.50;7376975;19;20010;-78
2022/07/15 08:15:59;;;;;;;3.13;1.30;;;;;;;22.99;48.93;102513.19;7374658;19;20019;-78
2022/07/15 08:18:38;;;;;;;2.60;1.27;;;;;;;22.47;50.49;102508.41;7375614;19;20424;-78
2022/07/15 08:21:08;;;;;;;4.40;1.20;;;;;;;23.02;49.08;102505.13;7378683;19;20045;-77
2022/07/15 08:23:38;;;;;;;3.42;1.10;;;;;;;22.09;51.62;102505.19;7376296;19;20010;-77
2022/07/15 08:26:13;;;;;;;6.45;1.67;;;;;;;21.84;52.95;102508.00;7376767;19;20014;-77
2022/07/15 08:28:44;;;;;;;5.43;1.45;;;;;;;20.62;55.04;102515.69;7376946;19;20733;-77
2022/07/15 08:31:34;;;;;;;6.75;1.60;;;;;;;21.16;55.28;102513.72;7375414;19;20025;-78
2022/07/15 08:34:04;;;;;;;6.13;1.80;;;;;;;20.82;55.92;102508.50;7376869;19;20042;-77
2022/07/15 08:36:34;;;;;;;3.92;1.40;;;;;;;21.53;56.43;102517.13;7374641;19;20102;-80
2022/07/15 08:39:05;;;;;;;3.78;1.23;;;;;;;22.65;53.50;102509.13;7377283;19;20078;-80
2022/07/15 08:41:39;;;;;;;4.47;1.65;;;;;;;22.01;52.67;102512.34;7377399;19;20010;-78
2022/07/15 08:44:10;;;;;;;7.80;1.80;;;;;;;22.24;54.32;102513.06;7379027;19;20101;-79
2022/07/15 08:46:47;;;;;;;3.90;1.48;;;;;;;22.48;53.56;102517.31;7379682;19;20006;-79
2022/07/15 08:49:19;;;;;;;7.95;1.88;;;;;;;21.63;52.48;102516.19;7375528;19;20014;-77
2022/07/15 08:51:54;;;;;;;6.30;1.80;;;;;;;21.27;55.05;102519.03;7377565;19;20094;-78
2022/07/15 08:54:30;;;;;;;4.38;1.35;;;;;;;20.62;55.87;102520.13;7375654;19;20010;-79
2022/07/15 08:57:03;;;;;;;5.13;1.83;;;;;;;21.27;54.80;102516.38;7375557;19;20018;-79
2022/07/15 08:59:35;;;;;;;5.17;1.40;;;;;;;22.03;54.85;102508.78;7375918;19;20044;-79
2022/07/15 09:02:05;;;;;;;3.13;1.55;;;;;;;21.57;54.79;102518.00;7380632;19;20010;-79
2022/07/15 09:05:01;;;;;;;4.90;1.60;;;;;;;22.24;53.68;102506.84;7374926;19;20039;-79
2022/07/15 09:07:53;;;;;;;6.70;2.15;;;;;;;22.46;50.99;102505.75;7375547;19;20025;-80
2022/07/15 09:10:25;;;;;;;6.80;1.77;;;;;;;22.54;51.67;102513.69;7379948;19;20019;-79
2022/07/15 09:13:00;;;;;;;6.00;1.95;;;;;;;21.87;51.86;102504.44;7375617;19;20503;-81
2022/07/15 09:15:34;;;;;;;9.75;5.05;;;;;;;22.32;49.90;102503.22;7378630;19;20010;-81
2022/07/15 09:18:10;;;;;;;8.10;3.38;;;;;;;21.78;51.72;102501.84;7376377;19;20041;-79
2022/07/15 09:20:42;;;;;;;9.35;2.70;;;;;;;21.42;52.96;102506.50;7383925;19;20472;-79
2022/07/15 09:23:20;;;;;;;7.13;2.10;;;;;;;21.85;51.98;102501.75;7386287;19;20178;-79
2022/07/15 09:25:53;;;;;;;4.85;1.92;;;;;;;21.84;51.73;102508.00;7387224;19;20044;-79
2022/07/15 09:28:44;;;;;;;3.60;1.75;;;;;;;23.31;49.14;102495.84;7384773;19;20014;-80
2022/07/15 09:34:03;;;;;;;4.35;1.70;;;;;;;23.56;47.59;102493.75;7382037;19;20282;-80
2022/07/15 09:36:35;;;;;;;4.55;1.80;;;;;;;23.11;46.93;102491.66;7384777;19;20014;-80
2022/07/15 09:39:07;;;;;;;7.82;2.03;;;;;;;22.62;47.77;102499.34;7383580;19;20070;-79
2022/07/15 09:41:39;;;;;;;7.50;2.40;;;;;;;22.34;48.17;102490.72;7384288;19;20015;-79
2022/07/15 09:44:14;;;;;;;5.32;2.22;;;;;;;22.66;48.04;102487.72;7383512;19;20015;-79
2022/07/15 09:46:47;;;;;;;5.10;2.60;;;;;;;22.58;47.34;102494.03;7387194;19;20036;-79
2022/07/15 09:49:20;;;;;;;5.57;2.38;;;;;;;22.52;48.02;102505.69;7383943;19;20384;-80
2022/07/15 09:51:54;;;;;;;4.40;2.30;;;;;;;22.36;47.81;102499.59;7383949;19;20014;-79
2022/07/15 09:54:30;;;;;;;5.88;2.25;;;;;;;23.29;47.96;102478.94;7386522;19;20026;-82
2022/07/15 09:57:01;;;;;;;4.88;2.15;;;;;;;23.42;44.89;102492.13;7384383;19;20692;-81
2022/07/15 09:59:34;;;;;;;4.07;2.30;;;;;;;22.01;48.34;102491.84;7383429;19;20014;-77
2022/07/15 10:02:09;;;;;;;5.85;2.85;;;;;;;22.53;46.90;102488.75;7379799;19;20015;-78
2022/07/15 10:04:40;;;;;;;7.15;2.58;;;;;;;22.87;47.28;102485.75;7384215;19;20015;-77
2022/07/15 10:07:13;;;;;;;3.90;1.92;;;;;;;23.65;47.03;102482.91;7382404;19;20010;-77
2022/07/15 10:09:58;;;;;;;5.00;1.98;;;;;;;22.98;46.45;102484.69;7381822;19;20014;-77
2022/07/15 10:12:50;;;;;;;3.90;2.20;;;;;;;22.73;48.52;102484.06;7381994;19;20010;-77
2022/07/15 10:15:32;;;;;;;6.18;2.38;;;;;;;22.94;46.77;102476.69;7381349;19;20025;-77
2022/07/15 10:18:21;;;;;;;4.88;2.22;;;;;;;23.22;44.11;102486.16;7379182;19;20007;-78
2022/07/15 10:21:05;;;;;;;4.35;2.00;;;;;;;23.35;45.30;102485.09;7381661;19;20014;-78
2022/07/15 10:23:53;;;;;;;5.35;1.88;;;;;;;24.32;44.25;102481.81;7380930;19;20003;-77
2022/07/15 10:26:47;;;;;;;5.68;2.97;;;;;;;23.73;44.10;102476.53;7381440;19;20007;-78
2022/07/15 10:29:17;;;;;;;6.05;2.83;;;;;;;23.61;44.89;102475.84;7380757;19;20010;-78
2022/07/15 10:31:59;;;;;;;8.30;2.47;;;;;;;24.81;43.40;102462.97;7383514;19;20709;-80
2022/07/15 10:34:34;;;;;;;5.25;2.35;;;;;;;24.50;42.07;102475.22;7378306;19;20014;-80
2022/07/15 10:37:10;;;;;;;4.15;2.50;;;;;;;23.71;42.73;102469.44;7382613;19;20482;-81
2022/07/15 10:39:57;;;;;;;5.70;2.47;;;;;;;23.72;44.97;102469.41;7382736;19;20018;-80
2022/07/15 10:43:01;;;;;;;3.55;1.80;;;;;;;24.74;43.09;102461.34;7383212;19;20011;-80
2022/07/15 10:45:35;;;;;;;;;;;;;;;25.37;42.06;102451.03;7382727;19;20479;-81
2022/07/15 10:48:33;;;;;;;4.05;1.75;;;;;;;24.49;41.05;102454.69;7383546;19;19914;-80
2022/07/15 10:51:03;;;;;;;4.03;1.90;;;;;;;23.56;42.72;102461.63;7377737;19;20038;-77
2022/07/15 10:53:33;;;;;;;4.72;1.92;;;;;;;23.52;43.47;102460.75;7376786;19;20019;-79
2022/07/15 10:56:35;;;;;;;4.35;1.90;;;;;;;22.92;44.27;102459.78;7378732;19;20006;-79
2022/07/15 10:59:15;;;;;;;11.70;3.10;;;;;;;23.20;43.26;102454.97;7378958;19;20079;-82
2022/07/15 11:01:48;;;;;;;5.05;2.00;;;;;;;24.21;41.57;102457.84;7382918;19;20016;-81
2022/07/15 11:04:23;;;;;;;3.33;2.20;;;;;;;23.58;42.02;102459.81;7380249;19;20019;-79
2022/07/15 11:07:24;;;;;;;4.95;2.10;;;;;;;23.80;42.76;102467.50;7379101;19;20014;-80
2022/07/15 11:09:55;;;;;;;4.25;2.30;;;;;;;23.88;42.58;102463.81;7383300;19;20015;-79
2022/07/15 11:12:46;;;;;;;4.03;2.08;;;;;;;23.37;43.48;102461.84;7382851;19;20006;-79
2022/07/15 11:15:18;;;;;;;4.13;2.00;;;;;;;23.55;43.00;102471.44;7384184;19;20014;-79
2022/07/15 11:17:51;;;;;;;6.90;2.65;;;;;;;23.58;43.48;102460.69;7385051;19;20015;-80
2022/07/15 11:20:36;;;;;;;6.30;2.75;;;;;;;24.03;42.24;102463.50;7382946;19;20017;-79
2022/07/15 11:23:08;;;;;;;4.60;2.45;;;;;;;23.90;42.81;102461.97;7379910;19;20574;-80
2022/07/15 11:25:40;;;;;;;4.80;2.40;;;;;;;23.42;42.88;102464.47;7379772;19;20011;-80
2022/07/15 11:28:14;;;;;;;6.50;2.50;;;;;;;24.03;42.21;102455.47;7382966;19;20456;-80
2022/07/15 11:30:47;;;;;;;5.53;2.58;;;;;;;24.10;42.95;102460.69;7383013;19;20014;-81
2022/07/15 11:33:21;;;;;;;5.55;2.40;;;;;;;25.07;42.19;102460.66;7380783;19;20010;-78
2022/07/15 11:35:56;;;;;;;5.35;2.47;;;;;;;25.35;39.68;102454.66;7379410;19;20003;-78
2022/07/15 11:38:28;;;;;;;7.70;2.72;;;;;;;25.57;41.60;102445.19;7379454;19;20007;-78
2022/07/15 11:46:34;;;;;;;5.85;2.70;;;;;;;24.22;42.59;102443.53;7379391;19;20023;-79
2022/07/15 11:49:04;;;;;;;6.13;2.63;;;;;;;24.20;43.40;102448.03;7377111;19;20010;-77
2022/07/15 11:51:37;;;;;;;5.05;2.53;;;;;;;24.32;42.36;102445.16;7379008;19;20507;-79
2022/07/15 11:54:07;;;;;;;5.57;2.70;;;;;;;24.97;43.54;102434.03;7371418;19;20011;-77
2022/07/15 11:56:37;;;;;;;3.83;2.28;;;;;;;25.22;41.76;102429.91;7375917;19;20505;-77
2022/07/15 11:59:08;;;;;;;6.82;2.80;;;;;;;24.75;43.41;102429.13;7378115;19;20106;-78